createdAt,value
2022-12-29T00:02:07.407Z,1.10
2022-12-29T00:06:10.284Z,1.45
2022-12-29T00:10:14.517Z,1.80
2022-12-29T00:14:35.319Z,1.30
2022-12-29T00:18:38.168Z,1.33
2022-12-29T00:22:58.618Z,1.38
2022-12-29T00:27:35.599Z,2.38
2022-12-29T00:31:55.993Z,1.38
2022-12-29T00:36:02.821Z,1.38
2022-12-29T00:40:24.315Z,1.20
2022-12-29T00:44:28.463Z,0.70
2022-12-29T00:48:48.750Z,1.30
2022-12-29T00:52:51.518Z,2.58
2022-12-29T00:56:54.994Z,1.30
2022-12-29T01:01:04.941Z,1.00
2022-12-29T01:05:09.566Z,0.80
2022-12-29T01:09:31.765Z,1.20
2022-12-29T01:13:34.977Z,0.80
2022-12-29T01:17:39.126Z,1.40
2022-12-29T01:21:42.043Z,1.10
2022-12-29T01:25:44.975Z,1.23
2022-12-29T01:29:47.813Z,1.00
2022-12-29T01:33:52.127Z,0.80
2022-12-29T01:37:55.072Z,1.30
2022-12-29T01:41:57.880Z,1.52
2022-12-29T01:46:00.791Z,1.77
2022-12-29T01:50:08.895Z,1.27
2022-12-29T01:54:21.572Z,1.00
2022-12-29T01:58:26.589Z,0.95
2022-12-29T02:02:33.203Z,0.55
2022-12-29T02:06:43.488Z,3.85
2022-12-29T02:10:46.930Z,1.20
2022-12-29T02:14:54.484Z,1.20
2022-12-29T02:19:10.492Z,1.08
2022-12-29T02:23:46.197Z,0.60
2022-12-29T02:28:16.764Z,0.70
2022-12-29T02:32:29.080Z,3.33
2022-12-29T02:36:40.004Z,1.10
2022-12-29T02:40:50.289Z,1.10
2022-12-29T02:45:01.160Z,1.02
2022-12-29T02:49:10.173Z,1.13
2022-12-29T02:53:16.726Z,1.48
2022-12-29T02:57:32.021Z,1.00
2022-12-29T03:02:05.129Z,0.90
2022-12-29T03:06:24.465Z,1.10
2022-12-29T03:10:37.482Z,0.55
2022-12-29T03:15:08.922Z,1.10
2022-12-29T03:19:19.356Z,0.80
2022-12-29T03:23:26.236Z,0.90
2022-12-29T03:27:32.474Z,0.70
2022-12-29T03:31:37.093Z,0.80
2022-12-29T03:35:43.083Z,0.68
2022-12-29T03:39:49.364Z,1.02
2022-12-29T03:43:52.174Z,0.85
2022-12-29T03:47:55.482Z,0.85
2022-12-29T03:51:58.311Z,0.70
2022-12-29T03:56:03.272Z,0.77
2022-12-29T04:00:08.002Z,0.80
2022-12-29T04:04:18.330Z,1.00
2022-12-29T04:08:21.502Z,0.63
2022-12-29T04:12:26.450Z,0.77
2022-12-29T04:16:29.482Z,0.98
2022-12-29T04:20:50.059Z,0.60
2022-12-29T04:24:53.437Z,0.70
2022-12-29T04:28:58.642Z,0.82
2022-12-29T04:33:10.228Z,0.70
2022-12-29T04:37:15.599Z,1.00
2022-12-29T04:41:18.604Z,0.70
2022-12-29T04:45:22.971Z,0.80
2022-12-29T04:49:29.817Z,1.05
2022-12-29T04:53:43.982Z,1.00
2022-12-29T04:57:46.758Z,0.70
2022-12-29T05:01:55.491Z,0.98
2022-12-29T05:05:59.277Z,4.13
2022-12-29T05:10:02.264Z,1.55
2022-12-29T05:14:06.667Z,1.30
2022-12-29T05:18:13.341Z,1.20
2022-12-29T05:22:16.832Z,0.93
2022-12-29T05:26:21.852Z,1.00
2022-12-29T05:30:35.367Z,1.40
2022-12-29T05:34:39.521Z,0.85
2022-12-29T05:38:42.562Z,0.95
2022-12-29T05:42:45.607Z,1.10
2022-12-29T05:47:00.986Z,0.93
2022-12-29T05:51:20.731Z,3.25
2022-12-29T05:55:25.154Z,1.40
2022-12-29T05:59:30.293Z,1.00
2022-12-29T06:03:36.573Z,0.80
2022-12-29T06:07:40.838Z,0.90
2022-12-29T06:11:44.058Z,0.60
2022-12-29T06:15:47.363Z,0.93
2022-12-29T06:19:50.255Z,1.23
2022-12-29T06:23:56.075Z,1.15
2022-12-29T06:27:58.864Z,1.13
2022-12-29T06:32:01.755Z,0.88
2022-12-29T06:36:08.263Z,1.10
2022-12-29T06:40:13.684Z,1.00
2022-12-29T06:44:35.202Z,0.88
2022-12-29T06:52:45.786Z,1.17
2022-12-29T06:56:49.860Z,1.50
2022-12-29T07:00:52.814Z,1.20
2022-12-29T07:04:55.561Z,0.90
2022-12-29T07:08:58.397Z,0.73
2022-12-29T07:13:02.474Z,0.82
2022-12-29T07:17:06.444Z,1.10
2022-12-29T07:21:09.197Z,1.13
2022-12-29T07:25:11.970Z,1.00
2022-12-29T07:29:16.082Z,0.77
2022-12-29T07:33:18.829Z,1.63
2022-12-29T07:37:23.635Z,1.10
2022-12-29T07:41:26.368Z,0.80
2022-12-29T07:45:33.411Z,1.15
2022-12-29T07:49:45.229Z,1.00
2022-12-29T07:53:48.007Z,1.00
2022-12-29T07:57:50.795Z,0.80
2022-12-29T08:01:55.015Z,0.63
2022-12-29T08:05:58.882Z,1.00
2022-12-29T08:10:02.482Z,0.75
2022-12-29T08:14:05.317Z,2.80
2022-12-29T08:18:09.475Z,1.85
2022-12-29T08:22:12.290Z,1.20
2022-12-29T08:26:15.044Z,0.82
2022-12-29T08:30:20.648Z,0.85
2022-12-29T08:34:24.820Z,1.20
2022-12-29T08:38:30.365Z,1.40
2022-12-29T08:42:33.784Z,1.20
2022-12-29T08:46:36.628Z,1.30
2022-12-29T08:50:42.838Z,1.40
2022-12-29T08:54:45.560Z,1.35
2022-12-29T08:58:48.389Z,1.02
2022-12-29T09:02:51.428Z,1.00
2022-12-29T09:06:56.010Z,1.17
2022-12-29T09:11:07.926Z,1.38
2022-12-29T09:15:11.576Z,3.15
2022-12-29T09:19:14.383Z,1.10
2022-12-29T09:23:18.522Z,1.05
2022-12-29T09:27:21.318Z,0.60
2022-12-29T09:31:24.188Z,1.27
2022-12-29T09:35:27.053Z,2.55
2022-12-29T09:39:31.233Z,2.30
2022-12-29T09:44:06.503Z,0.73
2022-12-29T09:48:15.304Z,1.20
2022-12-29T09:52:23.595Z,0.90
2022-12-29T09:56:29.811Z,1.00
2022-12-29T10:00:39.180Z,1.37
2022-12-29T10:04:43.714Z,0.82
2022-12-29T10:08:51.802Z,0.98
2022-12-29T10:13:06.783Z,0.93
2022-12-29T10:17:21.932Z,1.30
2022-12-29T10:21:32.508Z,1.17
2022-12-29T10:25:40.150Z,1.33
2022-12-29T10:29:48.660Z,1.23
2022-12-29T10:33:54.096Z,0.90
2022-12-29T10:38:03.278Z,1.00
2022-12-29T10:42:13.217Z,1.10
2022-12-29T10:46:22.113Z,1.23
2022-12-29T10:50:26.734Z,1.00
2022-12-29T10:54:34.557Z,0.80
2022-12-29T10:58:38.094Z,1.10
2022-12-29T11:03:10.501Z,0.93
2022-12-29T11:07:16.325Z,1.00
2022-12-29T11:11:27.090Z,1.17
2022-12-29T11:15:39.875Z,1.13
2022-12-29T11:19:43.976Z,0.82
2022-12-29T11:23:59.269Z,0.98
2022-12-29T11:28:05.108Z,0.82
2022-12-29T11:32:14.552Z,1.00
2022-12-29T11:36:23.884Z,1.05
2022-12-29T11:40:27.394Z,0.80
2022-12-29T11:44:37.306Z,1.10
2022-12-29T11:48:42.282Z,0.85
2022-12-29T11:52:47.073Z,0.80
2022-12-29T11:56:50.670Z,0.70
2022-12-29T12:00:53.716Z,1.10
2022-12-29T12:05:03.303Z,0.82
2022-12-29T12:09:15.273Z,1.00
2022-12-29T12:13:23.239Z,0.98
2022-12-29T12:17:38.115Z,1.00
2022-12-29T12:21:45.682Z,1.20
2022-12-29T12:25:57.969Z,1.20
2022-12-29T12:30:04.892Z,1.00
2022-12-29T12:34:13.338Z,1.20
2022-12-29T12:38:23.882Z,1.30
2022-12-29T12:42:41.354Z,1.52
2022-12-29T12:47:07.562Z,1.10
2022-12-29T12:51:17.726Z,1.00
2022-12-29T12:55:35.970Z,1.20
2022-12-29T12:59:51.462Z,1.40
2022-12-29T13:04:13.862Z,1.40
2022-12-29T13:08:51.143Z,1.17
2022-12-29T13:17:09.735Z,1.20
2022-12-29T13:21:21.308Z,1.30
2022-12-29T13:25:33.427Z,1.10
2022-12-29T13:29:43.495Z,1.30
2022-12-29T13:33:58.100Z,1.15
2022-12-29T13:38:06.267Z,1.10
2022-12-29T13:42:09.663Z,0.82
2022-12-29T13:46:16.197Z,4.30
2022-12-29T13:50:23.068Z,1.80
2022-12-29T13:54:36.624Z,2.35
2022-12-29T13:58:45.848Z,0.90
2022-12-29T14:03:13.300Z,0.70
2022-12-29T14:07:19.606Z,0.60
2022-12-29T14:11:26.603Z,0.60
2022-12-29T14:15:29.507Z,1.00
2022-12-29T14:19:42.206Z,0.70
2022-12-29T14:23:48.533Z,0.63
2022-12-29T14:27:56.018Z,0.88
2022-12-29T14:31:58.816Z,0.90
2022-12-29T14:36:23.978Z,0.90
2022-12-29T14:40:28.658Z,1.15
2022-12-29T14:44:31.630Z,0.70
2022-12-29T14:48:39.127Z,1.30
2022-12-29T14:52:48.607Z,1.38
2022-12-29T14:56:52.844Z,0.88
2022-12-29T15:00:56.745Z,1.52
2022-12-29T15:05:02.202Z,1.10
2022-12-29T15:09:11.925Z,1.27
2022-12-29T15:13:20.329Z,1.30
2022-12-29T15:17:28.955Z,1.38
2022-12-29T15:21:33.663Z,1.63
2022-12-29T15:25:37.405Z,1.50
2022-12-29T15:29:44.292Z,0.80
2022-12-29T15:33:49.380Z,0.70
2022-12-29T15:37:52.222Z,0.75
2022-12-29T15:42:01.388Z,0.98
2022-12-29T15:46:06.179Z,0.68
2022-12-29T15:50:17.671Z,0.70
2022-12-29T15:54:23.437Z,1.42
2022-12-29T15:58:28.746Z,2.17
2022-12-29T16:02:34.866Z,2.42
2022-12-29T16:06:39.404Z,4.03
2022-12-29T16:10:44.495Z,1.90
2022-12-29T16:14:49.623Z,1.85
2022-12-29T16:18:58.052Z,1.50
2022-12-29T16:23:02.009Z,1.80
2022-12-29T16:27:10.818Z,1.55
2022-12-29T16:31:21.249Z,1.48
2022-12-29T16:35:27.864Z,3.35
2022-12-29T16:39:36.757Z,3.35
2022-12-29T16:43:42.949Z,3.38
2022-12-29T16:47:46.183Z,2.75
2022-12-29T16:51:51.359Z,3.30
2022-12-29T16:55:55.721Z,3.78
2022-12-29T17:00:01.132Z,3.00
2022-12-29T17:04:08.289Z,4.10
2022-12-29T17:08:23.738Z,3.58
2022-12-29T17:12:28.825Z,11.90
2022-12-29T17:16:31.615Z,7.32
2022-12-29T17:20:34.732Z,8.45
2022-12-29T17:24:39.776Z,6.63
2022-12-29T17:28:42.627Z,3.75
2022-12-29T17:32:50.739Z,4.18
2022-12-29T17:36:53.558Z,3.30
2022-12-29T17:40:58.687Z,3.50
2022-12-29T17:45:02.846Z,3.35
2022-12-29T17:49:07.197Z,2.22
2022-12-29T17:53:14.860Z,2.47
2022-12-29T17:57:20.983Z,2.00
2022-12-29T18:01:31.004Z,2.15
2022-12-29T18:05:36.778Z,4.32
2022-12-29T18:09:39.551Z,7.28
2022-12-29T18:13:46.738Z,3.13
2022-12-29T18:17:50.526Z,2.70
2022-12-29T18:21:53.297Z,2.30
2022-12-29T18:25:59.087Z,2.15
2022-12-29T18:30:03.250Z,2.30
2022-12-29T18:34:14.532Z,1.73
2022-12-29T18:38:17.289Z,1.67
2022-12-29T18:42:20.083Z,1.95
2022-12-29T18:46:24.481Z,2.72
2022-12-29T18:50:27.965Z,2.30
2022-12-29T18:54:32.208Z,2.63
2022-12-29T18:58:34.973Z,2.55
2022-12-29T19:02:39.208Z,2.00
2022-12-29T19:06:42.358Z,2.08
2022-12-29T19:10:46.063Z,2.15
2022-12-29T19:14:49.152Z,1.92
2022-12-29T19:19:08.239Z,1.65
2022-12-29T19:23:13.841Z,2.50
2022-12-29T19:27:16.643Z,1.63
2022-12-29T19:31:19.451Z,2.80
2022-12-29T19:35:24.802Z,2.38
2022-12-29T19:39:29.482Z,2.00
2022-12-29T19:43:32.317Z,2.08
2022-12-29T19:47:35.219Z,1.23
2022-12-29T19:51:39.597Z,1.75
2022-12-29T19:55:43.412Z,1.83
2022-12-29T19:59:46.302Z,1.70
2022-12-29T20:03:49.476Z,1.70
2022-12-29T20:07:53.639Z,2.47
2022-12-29T20:11:56.389Z,1.73
2022-12-29T20:16:00.776Z,1.90
2022-12-29T20:20:06.846Z,2.08
2022-12-29T20:24:11.069Z,1.50
2022-12-29T20:28:14.325Z,1.95
2022-12-29T20:32:20.658Z,1.95
2022-12-29T20:40:28.756Z,2.72
2022-12-29T20:44:33.382Z,2.40
2022-12-29T20:48:36.270Z,2.20
2022-12-29T20:52:41.616Z,2.07
2022-12-29T20:56:45.926Z,4.10
2022-12-29T21:00:48.715Z,1.85
2022-12-29T21:05:23.282Z,2.03
2022-12-29T21:09:14.279Z,1.58
2022-12-29T21:13:18.804Z,1.17
2022-12-29T21:17:21.704Z,2.13
2022-12-29T21:21:26.329Z,1.70
2022-12-29T21:25:37.227Z,1.30
2022-12-29T21:29:41.543Z,1.60
2022-12-29T21:33:44.392Z,1.60
2022-12-29T21:37:47.287Z,1.60
2022-12-29T21:41:50.086Z,2.03
2022-12-29T21:45:54.243Z,1.48
2022-12-29T21:49:57.054Z,1.58
2022-12-29T21:54:22.519Z,1.23
2022-12-29T21:58:42.915Z,1.50
2022-12-29T22:03:04.539Z,1.30
2022-12-29T22:07:26.503Z,1.38
2022-12-29T22:11:46.803Z,1.50
2022-12-29T22:15:49.737Z,1.40
2022-12-29T22:19:53.917Z,1.20
2022-12-29T22:23:56.716Z,1.10
2022-12-29T22:28:00.137Z,1.50
2022-12-29T22:32:02.904Z,1.00
2022-12-29T22:36:08.275Z,1.50
2022-12-29T22:40:12.715Z,1.17
2022-12-29T22:44:15.494Z,1.40
2022-12-29T22:48:18.283Z,1.30
2022-12-29T22:52:22.415Z,1.48
2022-12-29T22:56:25.244Z,1.17
2022-12-29T23:00:28.035Z,1.02
2022-12-29T23:08:56.872Z,0.60
2022-12-29T23:12:59.680Z,1.05
2022-12-29T23:17:02.471Z,0.77
2022-12-29T23:21:05.713Z,0.60
2022-12-29T23:25:10.848Z,1.00
2022-12-29T23:29:15.857Z,0.73
2022-12-29T23:33:18.639Z,0.60
2022-12-29T23:37:21.428Z,0.63
2022-12-29T23:41:26.199Z,0.90
2022-12-29T23:45:29.025Z,0.90
2022-12-29T23:49:32.068Z,0.68
2022-12-29T23:53:35.796Z,0.57
2022-12-29T23:57:39.927Z,1.00
